createdAt,value
2023-01-23T00:00:47.746Z,98510.28
2023-01-23T00:03:14.347Z,98498.25
2023-01-23T00:05:40.786Z,98510.41
2023-01-23T00:08:07.317Z,98493.72
2023-01-23T00:10:33.690Z,98498.44
2023-01-23T00:13:00.056Z,98507.47
2023-01-23T00:15:27.387Z,98507.50
2023-01-23T00:17:54.035Z,98505.16
2023-01-23T00:20:20.705Z,98499.44
2023-01-23T00:22:47.256Z,98513.00
2023-01-23T00:25:13.635Z,98501.81
2023-01-23T00:27:40.039Z,98508.09
2023-01-23T00:30:06.847Z,98487.84
2023-01-23T00:32:33.175Z,98510.06
2023-01-23T00:35:00.532Z,98502.59
2023-01-23T00:37:26.892Z,98484.53
2023-01-23T00:39:53.271Z,98500.22
2023-01-23T00:42:20.015Z,98501.59
2023-01-23T00:44:46.423Z,98496.53
2023-01-23T00:47:12.821Z,98500.81
2023-01-23T00:49:39.190Z,98511.44
2023-01-23T00:52:05.573Z,98504.94
2023-01-23T00:54:31.974Z,98516.31
2023-01-23T00:56:58.441Z,98521.06
2023-01-23T00:59:24.924Z,98524.59
2023-01-23T01:01:51.464Z,98517.94
2023-01-23T01:04:17.857Z,98523.41
2023-01-23T01:06:44.226Z,98527.72
2023-01-23T01:09:10.585Z,98533.25
2023-01-23T01:11:36.966Z,98534.81
2023-01-23T01:14:03.863Z,98528.91
2023-01-23T01:16:30.384Z,98521.28
2023-01-23T01:18:56.776Z,98522.25
2023-01-23T01:21:23.336Z,98514.81
2023-01-23T01:23:49.837Z,98540.31
2023-01-23T01:26:16.201Z,98547.81
2023-01-23T01:28:42.616Z,98549.34
2023-01-23T01:31:12.402Z,98548.00
2023-01-23T01:33:40.980Z,98537.97
2023-01-23T01:36:12.560Z,98537.00
2023-01-23T01:38:39.108Z,98533.88
2023-01-23T01:41:06.546Z,98549.38
2023-01-23T01:43:34.403Z,98541.91
2023-01-23T01:46:21.213Z,98548.19
2023-01-23T01:49:02.757Z,98551.13
2023-01-23T01:51:50.266Z,98548.22
2023-01-23T01:54:24.345Z,98544.28
2023-01-23T01:57:28.233Z,98544.09
2023-01-23T02:00:16.405Z,98549.97
2023-01-23T02:02:56.114Z,98550.16
2023-01-23T02:05:25.968Z,98540.38
2023-01-23T02:08:14.712Z,98532.88
2023-01-23T02:10:42.177Z,98538.38
2023-01-23T02:13:20.836Z,98544.09
2023-01-23T02:15:47.863Z,98544.66
2023-01-23T02:18:14.465Z,98561.97
2023-01-23T02:20:41.099Z,98558.03
2023-01-23T02:23:16.514Z,98558.22
2023-01-23T02:25:42.823Z,98557.66
2023-01-23T02:28:11.092Z,98565.50
2023-01-23T02:30:39.962Z,98553.13
2023-01-23T02:33:30.002Z,98566.09
2023-01-23T02:35:56.492Z,98562.38
2023-01-23T02:38:27.093Z,98556.28
2023-01-23T02:40:55.165Z,98576.72
2023-01-23T02:43:28.346Z,98563.94
2023-01-23T02:45:54.852Z,98563.75
2023-01-23T02:48:21.998Z,98557.06
2023-01-23T02:50:48.622Z,98560.00
2023-01-23T02:53:14.987Z,98566.50
2023-01-23T02:55:44.995Z,98569.84
2023-01-23T02:58:29.867Z,98563.16
2023-01-23T03:00:56.377Z,98560.81
2023-01-23T03:03:22.997Z,98566.09
2023-01-23T03:05:50.166Z,98560.81
2023-01-23T03:08:16.524Z,98570.00
2023-01-23T03:10:43.121Z,98557.44
2023-01-23T03:13:11.990Z,98560.00
2023-01-23T03:15:39.144Z,98576.50
2023-01-23T03:18:05.963Z,98576.72
2023-01-23T03:20:41.830Z,98576.31
2023-01-23T03:23:09.029Z,98574.16
2023-01-23T03:25:35.414Z,98584.38
2023-01-23T03:28:01.810Z,98562.19
2023-01-23T03:30:28.177Z,98587.91
2023-01-23T03:32:54.587Z,98583.97
2023-01-23T03:35:21.036Z,98580.44
2023-01-23T03:37:49.509Z,98590.25
2023-01-23T03:40:42.637Z,98587.69
2023-01-23T03:43:09.830Z,98592.41
2023-01-23T03:45:36.209Z,98588.91
2023-01-23T03:48:02.658Z,98587.31
2023-01-23T03:50:29.022Z,98579.25
2023-01-23T03:52:55.371Z,98570.81
2023-01-23T03:55:21.733Z,98578.66
2023-01-23T03:57:48.584Z,98596.53
2023-01-23T04:00:16.690Z,98594.19
2023-01-23T04:02:43.104Z,98599.28
2023-01-23T04:05:09.839Z,98574.53
2023-01-23T04:07:36.189Z,98604.81
2023-01-23T04:10:02.644Z,98603.03
2023-01-23T04:12:29.005Z,98591.44
2023-01-23T04:14:55.409Z,98589.84
2023-01-23T04:17:21.798Z,98592.00
2023-01-23T04:19:48.150Z,98600.50
2023-01-23T04:22:14.513Z,98588.69
2023-01-23T04:24:40.882Z,98592.41
2023-01-23T04:27:07.300Z,98594.00
2023-01-23T04:29:33.852Z,98589.47
2023-01-23T04:32:00.337Z,98592.63
2023-01-23T04:34:26.685Z,98577.47
2023-01-23T04:36:53.074Z,98584.16
2023-01-23T04:39:19.461Z,98577.69
2023-01-23T04:41:45.815Z,98592.03
2023-01-23T04:44:21.158Z,98591.25
2023-01-23T04:46:53.163Z,98599.31
2023-01-23T04:49:23.385Z,98583.78
2023-01-23T04:51:50.134Z,98589.47
2023-01-23T04:54:17.973Z,98596.16
2023-01-23T04:56:44.593Z,98589.47
2023-01-23T04:59:11.280Z,98586.91
2023-01-23T05:01:38.578Z,98579.25
2023-01-23T05:04:05.601Z,98581.81
2023-01-23T05:06:32.057Z,98585.16
2023-01-23T05:08:58.871Z,98590.66
2023-01-23T05:11:25.323Z,98571.59
2023-01-23T05:13:51.710Z,98588.50
2023-01-23T05:16:18.042Z,98589.06
2023-01-23T05:18:44.429Z,98591.25
2023-01-23T05:21:10.764Z,98594.19
2023-01-23T05:23:37.145Z,98592.03
2023-01-23T05:26:03.555Z,98598.13
2023-01-23T05:28:29.909Z,98590.66
2023-01-23T05:30:56.981Z,98588.47
2023-01-23T05:33:23.429Z,98593.59
2023-01-23T05:35:49.783Z,98597.13
2023-01-23T05:38:16.161Z,98603.22
2023-01-23T05:40:42.508Z,98611.09
2023-01-23T05:43:13.849Z,98608.94
2023-01-23T05:45:40.196Z,98616.78
2023-01-23T05:48:06.915Z,98614.81
2023-01-23T05:50:34.478Z,98612.25
2023-01-23T05:53:01.071Z,98612.44
2023-01-23T05:55:27.463Z,98634.88
2023-01-23T05:57:53.834Z,98628.56
2023-01-23T06:00:20.804Z,98631.72
2023-01-23T06:02:47.507Z,98627.59
2023-01-23T06:05:13.885Z,98638.59
2023-01-23T06:07:40.434Z,98633.47
2023-01-23T06:10:09.761Z,98630.34
2023-01-23T06:12:36.350Z,98639.00
2023-01-23T06:15:02.856Z,98653.16
2023-01-23T06:17:29.243Z,98638.97
2023-01-23T06:19:55.711Z,98648.22
2023-01-23T06:22:22.086Z,98630.72
2023-01-23T06:24:48.850Z,98648.22
2023-01-23T06:27:15.369Z,98648.44
2023-01-23T06:29:41.773Z,98640.34
2023-01-23T06:32:08.134Z,98635.25
2023-01-23T06:34:34.610Z,98653.13
2023-01-23T06:37:00.999Z,98635.06
2023-01-23T06:39:27.445Z,98638.00
2023-01-23T06:41:53.798Z,98644.88
2023-01-23T06:44:20.181Z,98656.09
2023-01-23T06:46:46.578Z,98661.22
2023-01-23T06:49:12.973Z,98660.00
2023-01-23T06:51:39.525Z,98656.47
2023-01-23T06:54:06.041Z,98655.13
2023-01-23T06:56:32.422Z,98655.09
2023-01-23T06:58:58.782Z,98661.78
2023-01-23T07:01:26.333Z,98662.38
2023-01-23T07:03:52.798Z,98678.28
2023-01-23T07:06:19.227Z,98671.41
2023-01-23T07:08:45.635Z,98686.94
2023-01-23T07:11:12.090Z,98684.59
2023-01-23T07:13:38.506Z,98693.81
2023-01-23T07:16:05.686Z,98682.63
2023-01-23T07:18:33.145Z,98691.28
2023-01-23T07:21:00.751Z,98689.13
2023-01-23T07:23:27.196Z,98688.34
2023-01-23T07:25:59.409Z,98681.44
2023-01-23T07:28:25.788Z,98695.97
2023-01-23T07:30:52.326Z,98697.16
2023-01-23T07:33:18.857Z,98695.97
2023-01-23T07:35:45.196Z,98707.00
2023-01-23T07:38:11.568Z,98707.00
2023-01-23T07:40:38.946Z,98692.25
2023-01-23T07:43:05.585Z,98713.09
2023-01-23T07:45:31.938Z,98701.31
2023-01-23T07:47:58.287Z,98706.59
2023-01-23T07:50:24.661Z,98718.59
2023-01-23T07:52:51.036Z,98706.00
2023-01-23T07:55:18.184Z,98700.31
2023-01-23T07:57:44.842Z,98706.41
2023-01-23T08:00:11.799Z,98726.88
2023-01-23T08:02:38.443Z,98738.06
2023-01-23T08:05:05.280Z,98739.25
2023-01-23T08:07:31.777Z,98731.41
2023-01-23T08:09:58.159Z,98735.53
2023-01-23T08:12:24.506Z,98751.63
2023-01-23T08:14:50.887Z,98740.44
2023-01-23T08:17:17.288Z,98734.53
2023-01-23T08:19:43.655Z,98736.09
2023-01-23T08:22:09.983Z,98742.78
2023-01-23T08:24:36.473Z,98754.00
2023-01-23T08:27:02.887Z,98754.22
2023-01-23T08:29:30.811Z,98749.47
2023-01-23T08:31:57.293Z,98759.69
2023-01-23T08:34:24.137Z,98759.53
2023-01-23T08:36:51.024Z,98747.91
2023-01-23T08:39:18.417Z,98746.94
2023-01-23T08:41:44.784Z,98753.59
2023-01-23T08:44:11.443Z,98763.47
2023-01-23T08:46:37.839Z,98770.53
2023-01-23T08:49:05.059Z,98768.75
2023-01-23T08:51:31.481Z,98761.69
2023-01-23T08:53:58.233Z,98767.56
2023-01-23T08:56:25.528Z,98760.13
2023-01-23T08:58:52.242Z,98776.25
2023-01-23T09:01:23.978Z,98762.66
2023-01-23T09:03:50.530Z,98766.81
2023-01-23T09:06:18.645Z,98778.59
2023-01-23T09:08:45.586Z,98762.09
2023-01-23T09:11:13.368Z,98775.66
2023-01-23T09:13:40.331Z,98767.00
2023-01-23T09:16:10.240Z,98768.78
2023-01-23T09:18:37.040Z,98781.56
2023-01-23T09:21:12.749Z,98771.13
2023-01-23T09:23:39.403Z,98773.69
2023-01-23T09:26:07.483Z,98769.16
2023-01-23T09:28:35.728Z,98776.44
2023-01-23T09:31:07.342Z,98777.41
2023-01-23T09:33:34.807Z,98762.47
2023-01-23T09:36:01.669Z,98770.72
2023-01-23T09:38:28.123Z,98775.84
2023-01-23T09:40:57.397Z,98772.91
2023-01-23T09:43:26.070Z,98771.13
2023-01-23T09:46:04.574Z,98784.31
2023-01-23T09:48:39.602Z,98788.25
2023-01-23T09:51:24.328Z,98792.00
2023-01-23T09:53:55.883Z,98797.88
2023-01-23T09:56:28.411Z,98796.91
2023-01-23T09:59:02.446Z,98792.16
2023-01-23T10:01:30.690Z,98783.91
2023-01-23T10:04:00.343Z,98796.31
2023-01-23T10:06:30.353Z,98799.66
2023-01-23T10:09:27.304Z,98775.66
2023-01-23T10:12:09.663Z,98796.91
2023-01-23T10:15:02.609Z,98797.28
2023-01-23T10:17:50.735Z,98788.44
2023-01-23T10:20:45.113Z,98802.41
2023-01-23T10:23:20.115Z,98802.59
2023-01-23T10:25:48.054Z,98783.31
2023-01-23T10:28:14.325Z,98806.72
2023-01-23T10:30:43.933Z,98789.41
2023-01-23T10:33:16.929Z,98789.03
2023-01-23T10:35:50.658Z,98791.78
2023-01-23T10:38:26.969Z,98791.16
2023-01-23T10:41:12.229Z,98781.94
2023-01-23T10:43:40.560Z,98789.03
2023-01-23T10:46:20.513Z,98792.75
2023-01-23T10:48:49.426Z,98778.19
2023-01-23T10:51:25.033Z,98784.47
2023-01-23T10:54:31.798Z,98782.09
2023-01-23T10:57:08.251Z,98782.13
2023-01-23T10:59:38.835Z,98777.56
2023-01-23T11:02:14.107Z,98774.66
2023-01-23T11:04:42.625Z,98765.59
2023-01-23T11:07:16.592Z,98784.25
2023-01-23T11:10:07.547Z,98763.97
2023-01-23T11:12:36.071Z,98778.53
2023-01-23T11:15:22.411Z,98783.06
2023-01-23T11:17:51.343Z,98759.44
2023-01-23T11:20:28.093Z,98775.78
2023-01-23T11:23:10.879Z,98772.41
2023-01-23T11:25:45.568Z,98761.63
2023-01-23T11:28:34.831Z,98760.22
2023-01-23T11:31:14.519Z,98769.50
2023-01-23T11:33:42.891Z,98761.63
2023-01-23T11:36:18.371Z,98766.31
2023-01-23T11:39:26.746Z,98772.63
2023-01-23T11:41:53.218Z,98771.66
2023-01-23T11:44:23.236Z,98757.72
2023-01-23T11:47:08.435Z,98762.00
2023-01-23T11:49:57.568Z,98749.03
2023-01-23T11:52:34.703Z,98764.34
2023-01-23T11:55:34.819Z,98758.38
2023-01-23T11:58:20.221Z,98752.88
2023-01-23T12:00:59.462Z,98749.16
2023-01-23T12:03:47.317Z,98759.97
2023-01-23T12:06:44.235Z,98751.91
2023-01-23T12:09:15.829Z,98740.69
2023-01-23T12:11:51.216Z,98752.06
2023-01-23T12:14:32.865Z,98750.75
2023-01-23T12:17:04.089Z,98742.84
2023-01-23T12:19:51.813Z,98735.56
2023-01-23T12:22:26.823Z,98733.78
2023-01-23T12:25:29.919Z,98741.03
2023-01-23T12:28:05.556Z,98727.22
2023-01-23T12:31:16.776Z,98734.09
2023-01-23T12:33:48.921Z,98732.53
2023-01-23T12:37:07.173Z,98710.94
2023-01-23T12:39:55.143Z,98719.56
2023-01-23T12:42:32.072Z,98714.78
2023-01-23T12:45:06.464Z,98724.06
2023-01-23T12:47:49.930Z,98717.81
2023-01-23T12:50:45.409Z,98725.66
2023-01-23T12:53:15.891Z,98716.19
2023-01-23T12:56:01.764Z,98701.09
2023-01-23T12:58:32.541Z,98717.41
2023-01-23T13:01:16.517Z,98723.84
2023-01-23T13:03:54.964Z,98716.53
2023-01-23T13:06:50.894Z,98720.66
2023-01-23T13:09:34.052Z,98704.13
2023-01-23T13:12:21.562Z,98703.91
2023-01-23T13:15:12.997Z,98701.00
2023-01-23T13:17:50.854Z,98698.00
2023-01-23T13:20:42.534Z,98706.47
2023-01-23T13:23:36.537Z,98717.19
2023-01-23T13:26:23.061Z,98699.88
2023-01-23T13:28:57.818Z,98704.84
2023-01-23T13:31:50.287Z,98703.69
2023-01-23T13:34:16.874Z,98708.38
2023-01-23T13:36:47.639Z,98708.19
2023-01-23T13:39:17.027Z,98709.97
2023-01-23T13:41:45.264Z,98709.78
2023-01-23T13:44:41.562Z,98695.41
2023-01-23T14:21:54.821Z,98720.47
2023-01-23T14:24:29.168Z,98703.22
2023-01-23T14:27:08.830Z,98729.34
2023-01-23T14:29:36.129Z,98725.41
2023-01-23T14:32:02.747Z,98714.78
2023-01-23T14:34:29.262Z,98724.22
2023-01-23T14:37:05.917Z,98728.53
2023-01-23T14:39:35.187Z,98727.38
2023-01-23T14:42:03.811Z,98723.81
2023-01-23T14:44:38.734Z,98725.59
2023-01-23T14:47:05.385Z,98724.22
2023-01-23T14:49:35.861Z,98703.38
2023-01-23T14:52:05.695Z,98706.91
2023-01-23T14:54:34.629Z,98703.56
2023-01-23T14:57:05.348Z,98716.53
2023-01-23T14:59:37.490Z,98700.03
2023-01-23T15:02:31.564Z,98715.34
2023-01-23T15:05:23.378Z,98718.13
2023-01-23T15:07:56.059Z,98712.63
2023-01-23T15:10:40.529Z,98727.56
2023-01-23T15:13:12.457Z,98700.22
2023-01-23T15:15:45.749Z,98717.72
2023-01-23T15:18:25.441Z,98723.63
2023-01-23T15:20:56.641Z,98716.38
2023-01-23T15:23:31.594Z,98726.78
2023-01-23T15:26:19.631Z,98722.44
2023-01-23T15:29:02.333Z,98700.25
2023-01-23T15:31:40.211Z,98720.28
2023-01-23T15:34:33.626Z,98717.91
2023-01-23T15:37:23.314Z,98716.19
2023-01-23T15:39:56.381Z,98730.13
2023-01-23T15:42:30.985Z,98709.88
2023-01-23T15:45:01.159Z,98726.03
2023-01-23T15:47:31.628Z,98728.97
2023-01-23T15:50:02.866Z,98725.63
2023-01-23T15:52:44.714Z,98735.88
2023-01-23T15:55:11.822Z,98728.78
2023-01-23T15:57:38.190Z,98716.78
2023-01-23T16:00:25.899Z,98721.16
2023-01-23T16:02:57.636Z,98729.41
2023-01-23T16:05:27.474Z,98742.97
2023-01-23T16:07:55.235Z,98740.00
2023-01-23T16:10:40.150Z,98741.19
2023-01-23T16:13:07.754Z,98744.16
2023-01-23T16:15:35.097Z,98730.38
2023-01-23T16:18:04.429Z,98722.13
2023-01-23T16:20:38.572Z,98746.31
2023-01-23T16:23:15.376Z,98748.06
2023-01-23T16:25:45.510Z,98730.38
2023-01-23T16:28:21.460Z,98730.75
2023-01-23T16:30:49.632Z,98738.03
2023-01-23T16:33:16.520Z,98741.00
2023-01-23T16:35:44.016Z,98732.72
2023-01-23T16:38:36.533Z,98738.22
2023-01-23T16:41:03.018Z,98724.88
2023-01-23T16:43:29.387Z,98727.22
2023-01-23T16:45:56.715Z,98734.69
2023-01-23T16:48:27.439Z,98736.88
2023-01-23T16:51:03.099Z,98730.38
2023-01-23T16:53:38.800Z,98722.72
2023-01-23T16:56:06.103Z,98739.63
2023-01-23T16:58:39.106Z,98739.59
2023-01-23T17:01:13.696Z,98739.25
2023-01-23T17:03:40.790Z,98740.41
2023-01-23T17:06:15.720Z,98741.41
2023-01-23T17:08:42.760Z,98742.78
2023-01-23T17:11:17.476Z,98741.22
2023-01-23T17:13:43.983Z,98752.03
2023-01-23T17:16:25.690Z,98740.81
2023-01-23T17:18:53.875Z,98752.59
2023-01-23T17:21:23.844Z,98743.94
2023-01-23T17:23:50.429Z,98732.38
2023-01-23T17:26:18.189Z,98744.38
2023-01-23T17:28:44.998Z,98731.78
2023-01-23T17:31:18.749Z,98746.50
2023-01-23T17:33:45.294Z,98754.19
2023-01-23T17:36:11.683Z,98756.16
2023-01-23T17:38:39.978Z,98749.50
2023-01-23T17:41:06.537Z,98742.22
2023-01-23T17:43:32.876Z,98749.69
2023-01-23T17:45:59.447Z,98748.28
2023-01-23T17:48:31.456Z,98729.59
2023-01-23T17:50:58.779Z,98732.34
2023-01-23T17:53:25.166Z,98735.09
2023-01-23T17:55:52.810Z,98752.59
2023-01-23T17:58:20.244Z,98751.03
2023-01-23T18:00:50.673Z,98756.53
2023-01-23T18:03:21.591Z,98755.97
2023-01-23T18:05:48.249Z,98749.47
2023-01-23T18:08:19.700Z,98758.13
2023-01-23T18:10:48.116Z,98743.16
2023-01-23T18:13:21.296Z,98740.44
2023-01-23T18:16:04.512Z,98746.91
2023-01-23T18:18:36.975Z,98745.72
2023-01-23T18:21:05.271Z,98746.91
2023-01-23T18:23:32.668Z,98752.63
2023-01-23T18:26:22.333Z,98780.16
2023-01-23T18:29:03.255Z,98767.19
2023-01-23T18:31:44.816Z,98771.31
2023-01-23T18:34:35.419Z,98774.06
2023-01-23T18:37:26.285Z,98772.69
2023-01-23T18:40:01.022Z,98776.63
2023-01-23T18:42:43.980Z,98769.31
2023-01-23T18:45:18.419Z,98767.19
2023-01-23T18:47:47.785Z,98749.28
2023-01-23T18:50:17.975Z,98768.94
2023-01-23T18:52:49.532Z,98769.34
2023-01-23T18:55:46.893Z,98766.03
2023-01-23T18:58:16.299Z,98769.56
2023-01-23T19:01:00.375Z,98761.88
2023-01-23T19:03:37.886Z,98764.81
2023-01-23T19:06:12.774Z,98765.63
2023-01-23T19:08:39.517Z,98771.53
2023-01-23T19:11:15.076Z,98748.13
2023-01-23T19:13:58.081Z,98763.25
2023-01-23T19:16:33.870Z,98762.09
2023-01-23T19:19:32.796Z,98774.47
2023-01-23T19:21:59.583Z,98758.34
2023-01-23T19:24:28.277Z,98760.91
2023-01-23T19:26:55.067Z,98771.13
2023-01-23T19:29:23.190Z,98763.25
2023-01-23T19:32:03.558Z,98758.72
2023-01-23T19:34:30.984Z,98766.59
2023-01-23T19:36:57.353Z,98765.22
2023-01-23T19:39:23.722Z,98774.84
2023-01-23T19:41:50.521Z,98775.47
2023-01-23T19:44:19.603Z,98760.31
2023-01-23T19:46:46.585Z,98758.53
2023-01-23T19:49:13.577Z,98769.16
2023-01-23T19:51:40.825Z,98769.75
2023-01-23T19:54:12.459Z,98761.88
2023-01-23T19:56:39.396Z,98778.19
2023-01-23T19:59:06.648Z,98779.97
2023-01-23T20:01:36.648Z,98777.22
2023-01-23T20:04:03.799Z,98766.63
2023-01-23T20:06:30.759Z,98776.25
2023-01-23T20:08:57.113Z,98793.16
2023-01-23T20:11:23.452Z,98784.31
2023-01-23T20:13:49.797Z,98804.97
2023-01-23T20:16:21.351Z,98799.66
2023-01-23T20:18:49.618Z,98807.34
2023-01-23T20:21:17.852Z,98800.84
2023-01-23T20:23:45.432Z,98808.91
2023-01-23T20:26:12.553Z,98815.78
2023-01-23T20:28:39.352Z,98807.53
2023-01-23T20:31:07.852Z,98808.91
2023-01-23T20:33:34.690Z,98810.88
2023-01-23T20:36:01.363Z,98813.44
2023-01-23T20:38:27.913Z,98813.22
2023-01-23T20:40:54.324Z,98812.03
2023-01-23T20:43:20.719Z,98793.75
2023-01-23T20:45:51.651Z,98809.09
2023-01-23T20:48:19.396Z,98820.13
2023-01-23T20:50:51.778Z,98819.13
2023-01-23T20:53:29.862Z,98817.75
2023-01-23T20:55:58.313Z,98801.03
2023-01-23T20:58:43.008Z,98807.91
2023-01-23T21:01:09.938Z,98795.72
2023-01-23T21:03:36.823Z,98790.81
2023-01-23T21:06:03.208Z,98807.13
2023-01-23T21:08:29.604Z,98787.66
2023-01-23T21:10:55.954Z,98794.56
2023-01-23T21:13:23.382Z,98809.50
2023-01-23T21:15:59.523Z,98808.13
2023-01-23T21:18:26.324Z,98796.31
2023-01-23T21:20:52.811Z,98814.41
2023-01-23T21:23:19.445Z,98814.19
2023-01-23T21:25:45.781Z,98802.59
2023-01-23T21:28:12.172Z,98799.47
2023-01-23T21:30:39.395Z,98812.03
2023-01-23T21:33:06.559Z,98797.66
2023-01-23T21:35:33.225Z,98802.59
2023-01-23T21:38:00.025Z,98791.00
2023-01-23T21:40:26.442Z,98818.38
2023-01-23T21:42:52.788Z,98795.13
2023-01-23T21:45:19.516Z,98808.50
2023-01-23T21:47:46.091Z,98809.09
2023-01-23T21:50:12.543Z,98810.09
2023-01-23T21:52:39.112Z,98816.78
2023-01-23T21:55:05.898Z,98812.03
2023-01-23T21:57:32.251Z,98809.88
2023-01-23T22:00:17.147Z,98800.03
2023-01-23T22:02:44.023Z,98793.94
2023-01-23T22:05:10.547Z,98803.19
2023-01-23T22:07:37.009Z,98820.13
2023-01-23T22:10:03.610Z,98792.94
2023-01-23T22:12:29.951Z,98798.28
2023-01-23T22:14:56.305Z,98803.38
2023-01-23T22:17:22.658Z,98815.38
2023-01-23T22:19:49.083Z,98814.81
2023-01-23T22:22:15.429Z,98810.47
2023-01-23T22:24:41.885Z,98805.75
2023-01-23T22:27:08.252Z,98819.94
2023-01-23T22:29:34.647Z,98825.03
2023-01-23T22:32:01.077Z,98822.50
2023-01-23T22:34:27.811Z,98796.50
2023-01-23T22:36:54.148Z,98808.50
2023-01-23T22:39:20.531Z,98819.13
2023-01-23T22:41:48.362Z,98823.06
2023-01-23T22:44:14.763Z,98819.91
2023-01-23T22:46:41.216Z,98817.16
2023-01-23T22:49:07.654Z,98810.25
2023-01-23T22:51:34.161Z,98813.03
2023-01-23T22:54:00.494Z,98815.56
2023-01-23T22:56:28.328Z,98828.38
2023-01-23T22:58:56.326Z,98840.78
2023-01-23T23:01:23.796Z,98825.22
2023-01-23T23:03:50.463Z,98830.34
2023-01-23T23:06:17.433Z,98828.56
2023-01-23T23:08:47.476Z,98839.00
2023-01-23T23:11:17.652Z,98837.63
2023-01-23T23:13:44.249Z,98829.94
2023-01-23T23:16:18.502Z,98824.63
2023-01-23T23:18:46.527Z,98825.22
2023-01-23T23:21:14.762Z,98819.94
2023-01-23T23:23:41.221Z,98819.91
2023-01-23T23:26:09.220Z,98821.91
2023-01-23T23:28:36.521Z,98829.34
2023-01-23T23:31:03.414Z,98824.63
2023-01-23T23:33:29.816Z,98819.91
2023-01-23T23:35:56.188Z,98823.69
2023-01-23T23:38:22.639Z,98815.59
2023-01-23T23:41:06.821Z,98814.41
2023-01-23T23:43:33.684Z,98832.91
2023-01-23T23:46:02.929Z,98838.22
2023-01-23T23:48:30.323Z,98833.47
2023-01-23T23:51:00.000Z,98833.28
2023-01-23T23:53:26.433Z,98830.72
2023-01-23T23:55:52.794Z,98826.03
2023-01-23T23:58:19.168Z,98830.94
